sensor_id;sensor_type;location;lat;lon;timestamp;pressure;altitude;pressure_sealevel;temperature;humidity
59170;BME280;52474;52.236;5.114;2023-02-05T00:00:17;103737.25;;;6.87;100.00
59170;BME280;52474;52.236;5.114;2023-02-05T00:02:43;103759.84;;;6.96;100.00
59170;BME280;52474;52.236;5.114;2023-02-05T00:05:09;103754.66;;;6.93;100.00
59170;BME280;52474;52.236;5.114;2023-02-05T00:07:35;103744.13;;;6.93;100.00
59170;BME280;52474;52.236;5.114;2023-02-05T00:10:00;103752.03;;;6.93;100.00
59170;BME280;52474;52.236;5.114;2023-02-05T00:12:26;103731.88;;;6.90;100.00
59170;BME280;52474;52.236;5.114;2023-02-05T00:14:52;103733.72;;;6.86;100.00
59170;BME280;52474;52.236;5.114;2023-02-05T00:17:18;103669.56;;;6.52;100.00
59170;BME280;52474;52.236;5.114;2023-02-05T00:19:43;103705.97;;;6.72;100.00
59170;BME280;52474;52.236;5.114;2023-02-05T00:22:09;103721.53;;;6.82;100.00
59170;BME280;52474;52.236;5.114;2023-02-05T00:24:35;103710.44;;;6.68;100.00
59170;BME280;52474;52.236;5.114;2023-02-05T00:27:01;103732.31;;;6.72;100.00
59170;BME280;52474;52.236;5.114;2023-02-05T00:29:27;103728.81;;;6.71;100.00
59170;BME280;52474;52.236;5.114;2023-02-05T00:31:52;103744.44;;;6.79;100.00
59170;BME280;52474;52.236;5.114;2023-02-05T00:34:18;103729.53;;;6.78;100.00
59170;BME280;52474;52.236;5.114;2023-02-05T00:36:45;103721.72;;;6.75;100.00
59170;BME280;52474;52.236;5.114;2023-02-05T00:39:11;103702.53;;;6.68;100.00
59170;BME280;52474;52.236;5.114;2023-02-05T00:41:38;103719.88;;;6.77;100.00
59170;BME280;52474;52.236;5.114;2023-02-05T00:44:05;103725.16;;;6.77;100.00
59170;BME280;52474;52.236;5.114;2023-02-05T00:46:31;103725.22;;;6.74;100.00
59170;BME280;52474;52.236;5.114;2023-02-05T00:48:57;103740.91;;;6.80;100.00
59170;BME280;52474;52.236;5.114;2023-02-05T00:51:23;103728.72;;;6.74;100.00
59170;BME280;52474;52.236;5.114;2023-02-05T00:53:48;103727.75;;;6.78;100.00
59170;BME280;52474;52.236;5.114;2023-02-05T00:56:14;103734.84;;;6.76;100.00
59170;BME280;52474;52.236;5.114;2023-02-05T00:58:40;103722.75;;;6.68;100.00
59170;BME280;52474;52.236;5.114;2023-02-05T01:01:06;103744.53;;;6.74;100.00
59170;BME280;52474;52.236;5.114;2023-02-05T01:03:31;103739.31;;;6.73;100.00
59170;BME280;52474;52.236;5.114;2023-02-05T01:05:57;103745.38;;;6.76;100.00
59170;BME280;52474;52.236;5.114;2023-02-05T01:08:24;103741.84;;;6.77;100.00
59170;BME280;52474;52.236;5.114;2023-02-05T01:10:50;103737.53;;;6.75;100.00
59170;BME280;52474;52.236;5.114;2023-02-05T01:13:16;103739.22;;;6.77;100.00
59170;BME280;52474;52.236;5.114;2023-02-05T01:15:43;103739.22;;;6.77;100.00
59170;BME280;52474;52.236;5.114;2023-02-05T01:18:09;103728.69;;;6.76;100.00
59170;BME280;52474;52.236;5.114;2023-02-05T01:20:37;103701.09;;;6.55;100.00
59170;BME280;52474;52.236;5.114;2023-02-05T01:23:03;103731.34;;;6.74;100.00
59170;BME280;52474;52.236;5.114;2023-02-05T01:25:29;103719.97;;;6.74;100.00
59170;BME280;52474;52.236;5.114;2023-02-05T01:27:54;103718.34;;;6.68;100.00
59170;BME280;52474;52.236;5.114;2023-02-05T01:30:20;103718.44;;;6.63;100.00
59170;BME280;52474;52.236;5.114;2023-02-05T01:32:47;103741.88;;;6.76;100.00
59170;BME280;52474;52.236;5.114;2023-02-05T01:35:13;103745.47;;;6.72;100.00
59170;BME280;52474;52.236;5.114;2023-02-05T01:37:38;103741.13;;;6.71;100.00
59170;BME280;52474;52.236;5.114;2023-02-05T01:40:04;103743.81;;;6.68;100.00
59170;BME280;52474;52.236;5.114;2023-02-05T01:42:31;103742.16;;;6.63;100.00
59170;BME280;52474;52.236;5.114;2023-02-05T01:47:51;103739.41;;;6.68;100.00
59170;BME280;52474;52.236;5.114;2023-02-05T01:50:20;103736.75;;;6.70;100.00
59170;BME280;52474;52.236;5.114;2023-02-05T01:52:48;103728.03;;;6.68;100.00
59170;BME280;52474;52.236;5.114;2023-02-05T01:55:14;103720.16;;;6.66;100.00
59170;BME280;52474;52.236;5.114;2023-02-05T01:57:40;103725.38;;;6.68;100.00
59170;BME280;52474;52.236;5.114;2023-02-05T02:00:06;103724.56;;;6.65;100.00
59170;BME280;52474;52.236;5.114;2023-02-05T02:02:43;103715.78;;;6.65;100.00
59170;BME280;52474;52.236;5.114;2023-02-05T02:05:12;103688.81;;;6.55;100.00
59170;BME280;52474;52.236;5.114;2023-02-05T02:07:39;103719.28;;;6.65;100.00
59170;BME280;52474;52.236;5.114;2023-02-05T02:10:06;103713.16;;;6.65;100.00
59170;BME280;52474;52.236;5.114;2023-02-05T02:12:36;103690.59;;;6.53;100.00
59170;BME280;52474;52.236;5.114;2023-02-05T02:15:09;103696.59;;;6.60;100.00
59170;BME280;52474;52.236;5.114;2023-02-05T02:17:39;103674.81;;;6.52;100.00
59170;BME280;52474;52.236;5.114;2023-02-05T02:20:08;103648.94;;;6.32;100.00
59170;BME280;52474;52.236;5.114;2023-02-05T02:28:31;103660.16;;;6.41;100.00
59170;BME280;52474;52.236;5.114;2023-02-05T02:33:33;103645.81;;;6.16;100.00
59170;BME280;52474;52.236;5.114;2023-02-05T02:36:06;103657.38;;;6.07;100.00
59170;BME280;52474;52.236;5.114;2023-02-05T02:38:40;103654.91;;;5.99;100.00
59170;BME280;52474;52.236;5.114;2023-02-05T02:41:16;103646.19;;;5.97;100.00
59170;BME280;52474;52.236;5.114;2023-02-05T02:43:49;103658.63;;;5.88;100.00
59170;BME280;52474;52.236;5.114;2023-02-05T02:46:23;103664.88;;;5.84;100.00
59170;BME280;52474;52.236;5.114;2023-02-05T02:48:54;103664.81;;;5.87;100.00
59170;BME280;52474;52.236;5.114;2023-02-05T02:51:22;103654.22;;;5.90;100.00
59170;BME280;52474;52.236;5.114;2023-02-05T02:53:53;103641.91;;;5.90;100.00
59170;BME280;52474;52.236;5.114;2023-02-05T02:56:23;103658.38;;;6.01;100.00
59170;BME280;52474;52.236;5.114;2023-02-05T02:59:04;103662.69;;;6.06;100.00
59170;BME280;52474;52.236;5.114;2023-02-05T03:01:36;103649.38;;;6.13;100.00
59170;BME280;52474;52.236;5.114;2023-02-05T03:04:18;103647.53;;;6.17;100.00
59170;BME280;52474;52.236;5.114;2023-02-05T03:06:49;103653.59;;;6.20;100.00
59170;BME280;52474;52.236;5.114;2023-02-05T03:12:01;103670.94;;;6.31;100.00
59170;BME280;52474;52.236;5.114;2023-02-05T03:14:27;103668.28;;;6.31;100.00
59170;BME280;52474;52.236;5.114;2023-02-05T03:16:54;103670.94;;;6.29;100.00
59170;BME280;52474;52.236;5.114;2023-02-05T03:19:21;103657.03;;;6.22;100.00
59170;BME280;52474;52.236;5.114;2023-02-05T03:21:53;103670.09;;;6.29;100.00
59170;BME280;52474;52.236;5.114;2023-02-05T03:24:19;103670.00;;;6.32;100.00
59170;BME280;52474;52.236;5.114;2023-02-05T03:26:44;103649.16;;;6.22;100.00
59170;BME280;52474;52.236;5.114;2023-02-05T03:29:20;103651.69;;;6.27;100.00
59170;BME280;52474;52.236;5.114;2023-02-05T03:31:55;103676.81;;;6.42;100.00
59170;BME280;52474;52.236;5.114;2023-02-05T03:43:00;103662.75;;;6.43;100.00
59170;BME280;52474;52.236;5.114;2023-02-05T03:45:42;103667.09;;;6.44;100.00
59170;BME280;52474;52.236;5.114;2023-02-05T03:48:27;103667.09;;;6.44;100.00
59170;BME280;52474;52.236;5.114;2023-02-05T03:56:19;103667.97;;;6.44;100.00
59170;BME280;52474;52.236;5.114;2023-02-05T03:58:51;103662.75;;;6.43;100.00
59170;BME280;52474;52.236;5.114;2023-02-05T04:01:19;103667.97;;;6.44;100.00
59170;BME280;52474;52.236;5.114;2023-02-05T04:03:49;103652.41;;;6.35;100.00
59170;BME280;52474;52.236;5.114;2023-02-05T04:06:15;103661.91;;;6.42;100.00
59170;BME280;52474;52.236;5.114;2023-02-05T04:08:41;103661.00;;;6.42;100.00
59170;BME280;52474;52.236;5.114;2023-02-05T04:11:11;103650.81;;;6.27;100.00
59170;BME280;52474;52.236;5.114;2023-02-05T04:13:38;103661.06;;;6.40;100.00
59170;BME280;52474;52.236;5.114;2023-02-05T04:16:06;103655.78;;;6.40;100.00
59170;BME280;52474;52.236;5.114;2023-02-05T04:18:32;103634.16;;;6.28;100.00
59170;BME280;52474;52.236;5.114;2023-02-05T04:20:58;103653.19;;;6.39;100.00
59170;BME280;52474;52.236;5.114;2023-02-05T04:23:27;103660.19;;;6.40;100.00
59170;BME280;52474;52.236;5.114;2023-02-05T04:25:53;103666.28;;;6.42;100.00
59170;BME280;52474;52.236;5.114;2023-02-05T04:28:23;103664.56;;;6.39;100.00
59170;BME280;52474;52.236;5.114;2023-02-05T04:30:49;103660.13;;;6.43;100.00
59170;BME280;52474;52.236;5.114;2023-02-05T04:33:15;103661.91;;;6.42;100.00
59170;BME280;52474;52.236;5.114;2023-02-05T04:35:41;103668.88;;;6.43;100.00
59170;BME280;52474;52.236;5.114;2023-02-05T04:38:07;103668.78;;;6.48;100.00
59170;BME280;52474;52.236;5.114;2023-02-05T04:40:32;103658.31;;;6.45;100.00
59170;BME280;52474;52.236;5.114;2023-02-05T04:42:58;103669.53;;;6.53;100.00
59170;BME280;52474;52.236;5.114;2023-02-05T04:45:24;103663.34;;;6.54;100.00
59170;BME280;52474;52.236;5.114;2023-02-05T04:47:56;103630.59;;;6.30;100.00
59170;BME280;52474;52.236;5.114;2023-02-05T04:50:22;103690.63;;;6.52;100.00
59170;BME280;52474;52.236;5.114;2023-02-05T04:52:48;103706.28;;;6.58;100.00
59170;BME280;52474;52.236;5.114;2023-02-05T04:55:13;103682.03;;;6.45;100.00
59170;BME280;52474;52.236;5.114;2023-02-05T04:57:39;103687.94;;;6.55;100.00
59170;BME280;52474;52.236;5.114;2023-02-05T05:00:05;103698.34;;;6.59;100.00
59170;BME280;52474;52.236;5.114;2023-02-05T05:02:31;103684.59;;;6.47;100.00
59170;BME280;52474;52.236;5.114;2023-02-05T05:04:57;103696.00;;;6.47;100.00
59170;BME280;52474;52.236;5.114;2023-02-05T05:07:22;103705.53;;;6.53;100.00
59170;BME280;52474;52.236;5.114;2023-02-05T05:09:48;103714.41;;;6.47;100.00
59170;BME280;52474;52.236;5.114;2023-02-05T05:12:13;103721.56;;;6.42;100.00
59170;BME280;52474;52.236;5.114;2023-02-05T05:14:39;103725.34;;;6.30;100.00
59170;BME280;52474;52.236;5.114;2023-02-05T05:17:05;103732.34;;;6.30;100.00
59170;BME280;52474;52.236;5.114;2023-02-05T05:19:31;103730.78;;;6.21;100.00
59170;BME280;52474;52.236;5.114;2023-02-05T05:21:57;103727.53;;;6.08;100.00
59170;BME280;52474;52.236;5.114;2023-02-05T05:24:23;103744.19;;;6.09;100.00
59170;BME280;52474;52.236;5.114;2023-02-05T05:26:48;103733.13;;;5.90;100.00
59170;BME280;52474;52.236;5.114;2023-02-05T05:29:14;103755.00;;;5.93;100.00
59170;BME280;52474;52.236;5.114;2023-02-05T05:31:40;103685.84;;;5.42;100.00
59170;BME280;52474;52.236;5.114;2023-02-05T05:34:06;103761.34;;;5.80;100.00
59170;BME280;52474;52.236;5.114;2023-02-05T05:36:32;103753.59;;;5.74;100.00
59170;BME280;52474;52.236;5.114;2023-02-05T05:38:58;103728.59;;;5.50;100.00
59170;BME280;52474;52.236;5.114;2023-02-05T05:41:44;103751.91;;;5.68;100.00
59170;BME280;52474;52.236;5.114;2023-02-05T05:44:28;103753.69;;;5.69;100.00
59170;BME280;52474;52.236;5.114;2023-02-05T05:46:54;103723.34;;;5.51;100.00
59170;BME280;52474;52.236;5.114;2023-02-05T05:49:20;103756.41;;;5.63;100.00
59170;BME280;52474;52.236;5.114;2023-02-05T05:51:45;103751.19;;;5.60;100.00
59170;BME280;52474;52.236;5.114;2023-02-05T05:54:11;103751.22;;;5.58;100.00
59170;BME280;52474;52.236;5.114;2023-02-05T05:56:36;103766.13;;;5.59;100.00
59170;BME280;52474;52.236;5.114;2023-02-05T05:59:03;103761.78;;;5.57;100.00
59170;BME280;52474;52.236;5.114;2023-02-05T06:01:29;103748.06;;;5.40;100.00
59170;BME280;52474;52.236;5.114;2023-02-05T06:03:55;103761.88;;;5.51;100.00
59170;BME280;52474;52.236;5.114;2023-02-05T06:06:22;103770.59;;;5.53;100.00
59170;BME280;52474;52.236;5.114;2023-02-05T06:08:47;103769.72;;;5.54;100.00
59170;BME280;52474;52.236;5.114;2023-02-05T06:11:13;103777.56;;;5.55;100.00
59170;BME280;52474;52.236;5.114;2023-02-05T06:13:39;103779.41;;;5.52;100.00
59170;BME280;52474;52.236;5.114;2023-02-05T06:16:06;103779.47;;;5.47;100.00
59170;BME280;52474;52.236;5.114;2023-02-05T06:18:31;103768.19;;;5.41;100.00
59170;BME280;52474;52.236;5.114;2023-02-05T06:20:57;103782.09;;;5.47;100.00
59170;BME280;52474;52.236;5.114;2023-02-05T06:23:23;103780.44;;;5.42;100.00
59170;BME280;52474;52.236;5.114;2023-02-05T06:25:49;103789.94;;;5.49;100.00
59170;BME280;52474;52.236;5.114;2023-02-05T06:28:15;103789.16;;;5.44;100.00
59170;BME280;52474;52.236;5.114;2023-02-05T06:30:40;103807.41;;;5.53;100.00
59170;BME280;52474;52.236;5.114;2023-02-05T06:33:06;103797.81;;;5.49;100.00
59170;BME280;52474;52.236;5.114;2023-02-05T06:35:32;103809.25;;;5.48;100.00
59170;BME280;52474;52.236;5.114;2023-02-05T06:37:57;103810.09;;;5.51;100.00
59170;BME280;52474;52.236;5.114;2023-02-05T06:40:23;103790.25;;;5.30;100.00
59170;BME280;52474;52.236;5.114;2023-02-05T06:42:53;103815.41;;;5.47;100.00
59170;BME280;52474;52.236;5.114;2023-02-05T06:45:19;103828.44;;;5.53;100.00
59170;BME280;52474;52.236;5.114;2023-02-05T06:47:44;103831.97;;;5.52;100.00
59170;BME280;52474;52.236;5.114;2023-02-05T06:50:10;103835.47;;;5.51;100.00
59170;BME280;52474;52.236;5.114;2023-02-05T06:52:37;103764.38;;;5.04;100.00
59170;BME280;52474;52.236;5.114;2023-02-05T06:55:03;103833.09;;;5.35;100.00
59170;BME280;52474;52.236;5.114;2023-02-05T06:57:29;103861.75;;;5.51;100.00
59170;BME280;52474;52.236;5.114;2023-02-05T06:59:57;103859.13;;;5.51;100.00
59170;BME280;52474;52.236;5.114;2023-02-05T07:02:22;103855.75;;;5.44;100.00
59170;BME280;52474;52.236;5.114;2023-02-05T07:04:48;103861.03;;;5.41;100.00
59170;BME280;52474;52.236;5.114;2023-02-05T07:07:14;103877.59;;;5.46;100.00
59170;BME280;52474;52.236;5.114;2023-02-05T07:09:42;103871.47;;;5.46;100.00
59170;BME280;52474;52.236;5.114;2023-02-05T07:12:08;103875.88;;;5.45;100.00
59170;BME280;52474;52.236;5.114;2023-02-05T07:14:38;103869.81;;;5.40;100.00
59170;BME280;52474;52.236;5.114;2023-02-05T07:17:04;103881.25;;;5.37;100.00
59170;BME280;52474;52.236;5.114;2023-02-05T07:19:29;103897.03;;;5.37;100.00
59170;BME280;52474;52.236;5.114;2023-02-05T07:21:55;103883.13;;;5.29;100.00
59170;BME280;52474;52.236;5.114;2023-02-05T07:24:21;103888.28;;;5.34;100.00
59170;BME280;52474;52.236;5.114;2023-02-05T07:26:47;103905.72;;;5.43;100.00
59170;BME280;52474;52.236;5.114;2023-02-05T07:29:12;103877.94;;;5.23;100.00
59170;BME280;52474;52.236;5.114;2023-02-05T07:31:41;103921.47;;;5.43;100.00
59170;BME280;52474;52.236;5.114;2023-02-05T07:34:07;103918.84;;;5.44;100.00
59170;BME280;52474;52.236;5.114;2023-02-05T07:36:32;103910.22;;;5.31;100.00
59170;BME280;52474;52.236;5.114;2023-02-05T07:38:58;103939.78;;;5.49;100.00
59170;BME280;52474;52.236;5.114;2023-02-05T07:41:24;103937.19;;;5.46;100.00
59170;BME280;52474;52.236;5.114;2023-02-05T07:43:52;103940.69;;;5.48;100.00
59170;BME280;52474;52.236;5.114;2023-02-05T07:46:19;103950.22;;;5.53;100.00
59170;BME280;52474;52.236;5.114;2023-02-05T07:48:45;103947.56;;;5.56;100.00
59170;BME280;52474;52.236;5.114;2023-02-05T07:51:16;103924.13;;;5.41;100.00
59170;BME280;52474;52.236;5.114;2023-02-05T07:53:42;103950.16;;;5.58;100.00
59170;BME280;52474;52.236;5.114;2023-02-05T07:56:09;103955.41;;;5.59;100.00
59170;BME280;52474;52.236;5.114;2023-02-05T07:58:34;103957.19;;;5.59;100.00
59170;BME280;52474;52.236;5.114;2023-02-05T08:01:01;103953.59;;;5.63;100.00
59170;BME280;52474;52.236;5.114;2023-02-05T08:03:28;103933.59;;;5.53;100.00
59170;BME280;52474;52.236;5.114;2023-02-05T08:05:54;103932.56;;;5.63;100.00
59170;BME280;52474;52.236;5.114;2023-02-05T08:08:19;103949.88;;;5.78;100.00
59170;BME280;52474;52.236;5.114;2023-02-05T08:10:45;103953.28;;;5.85;100.00
59170;BME280;52474;52.236;5.114;2023-02-05T08:13:11;103954.06;;;5.91;100.00
59170;BME280;52474;52.236;5.114;2023-02-05T08:15:38;103943.44;;;5.99;100.00
59170;BME280;52474;52.236;5.114;2023-02-05T08:18:04;103934.00;;;5.84;100.00
59170;BME280;52474;52.236;5.114;2023-02-05T08:20:30;103961.81;;;6.02;100.00
59170;BME280;52474;52.236;5.114;2023-02-05T08:22:56;103951.22;;;6.05;100.00
59170;BME280;52474;52.236;5.114;2023-02-05T08:25:22;103937.38;;;5.94;100.00
59170;BME280;52474;52.236;5.114;2023-02-05T08:27:48;103961.66;;;6.11;100.00
59170;BME280;52474;52.236;5.114;2023-02-05T08:30:17;103959.88;;;6.13;100.00
59170;BME280;52474;52.236;5.114;2023-02-05T08:32:47;103940.47;;;6.20;100.00
59170;BME280;52474;52.236;5.114;2023-02-05T08:35:14;103934.16;;;6.29;100.00
59170;BME280;52474;52.236;5.114;2023-02-05T08:37:40;103937.72;;;6.27;100.00
59170;BME280;52474;52.236;5.114;2023-02-05T08:40:06;103958.69;;;6.31;100.00
59170;BME280;52474;52.236;5.114;2023-02-05T08:42:32;103966.56;;;6.33;100.00
59170;BME280;52474;52.236;5.114;2023-02-05T08:44:57;103974.88;;;6.58;100.00
59170;BME280;52474;52.236;5.114;2023-02-05T08:47:24;103971.19;;;6.68;100.00
59170;BME280;52474;52.236;5.114;2023-02-05T08:49:50;103987.22;;;7.01;100.00
59170;BME280;52474;52.236;5.114;2023-02-05T08:52:16;103993.78;;;7.25;100.00
59170;BME280;52474;52.236;5.114;2023-02-05T08:54:42;104004.34;;;7.23;100.00
59170;BME280;52474;52.236;5.114;2023-02-05T08:57:07;104006.41;;;7.09;100.00
59170;BME280;52474;52.236;5.114;2023-02-05T08:59:34;103993.03;;;6.72;100.00
59170;BME280;52474;52.236;5.114;2023-02-05T09:02:00;103985.47;;;6.55;100.00
59170;BME280;52474;52.236;5.114;2023-02-05T09:04:26;103985.56;;;6.49;100.00
59170;BME280;52474;52.236;5.114;2023-02-05T09:06:52;104020.44;;;6.61;100.00
59170;BME280;52474;52.236;5.114;2023-02-05T09:09:18;104018.44;;;6.77;100.00
59170;BME280;52474;52.236;5.114;2023-02-05T09:11:47;104007.56;;;6.94;100.00
59170;BME280;52474;52.236;5.114;2023-02-05T09:14:14;103942.31;;;6.62;100.00
59170;BME280;52474;52.236;5.114;2023-02-05T09:16:40;103999.53;;;7.02;100.00
59170;BME280;52474;52.236;5.114;2023-02-05T09:19:06;104012.53;;;7.51;100.00
59170;BME280;52474;52.236;5.114;2023-02-05T09:21:33;104014.91;;;7.64;100.00
59170;BME280;52474;52.236;5.114;2023-02-05T09:23:58;104027.47;;;7.52;100.00
59170;BME280;52474;52.236;5.114;2023-02-05T09:26:24;104013.56;;;7.44;100.00
59170;BME280;52474;52.236;5.114;2023-02-05T09:28:50;104020.78;;;7.36;100.00
59170;BME280;52474;52.236;5.114;2023-02-05T09:31:17;104004.59;;;7.11;100.00
59170;BME280;52474;52.236;5.114;2023-02-05T09:33:44;104006.53;;;7.01;100.00
59170;BME280;52474;52.236;5.114;2023-02-05T09:36:20;104010.94;;;7.01;100.00
59170;BME280;52474;52.236;5.114;2023-02-05T09:38:47;104007.75;;;7.28;100.00
59170;BME280;52474;52.236;5.114;2023-02-05T09:51:22;104009.41;;;8.48;100.00
59170;BME280;52474;52.236;5.114;2023-02-05T09:53:54;104002.47;;;8.44;100.00
59170;BME280;52474;52.236;5.114;2023-02-05T09:56:23;104001.69;;;8.38;100.00
59170;BME280;52474;52.236;5.114;2023-02-05T09:58:50;103998.53;;;8.60;100.00
59170;BME280;52474;52.236;5.114;2023-02-05T10:01:21;104001.19;;;8.58;100.00
59170;BME280;52474;52.236;5.114;2023-02-05T10:03:51;104010.00;;;8.92;100.00
59170;BME280;52474;52.236;5.114;2023-02-05T10:06:37;104020.59;;;8.90;100.00
59170;BME280;52474;52.236;5.114;2023-02-05T10:20:53;103981.50;;;13.08;100.00
59170;BME280;52474;52.236;5.114;2023-02-05T10:26:14;104006.50;;;13.24;100.00
59170;BME280;52474;52.236;5.114;2023-02-05T10:29:09;104003.00;;;10.35;100.00
59170;BME280;52474;52.236;5.114;2023-02-05T10:31:41;103998.88;;;11.01;100.00
59170;BME280;52474;52.236;5.114;2023-02-05T10:36:53;104006.00;;;9.96;100.00
59170;BME280;52474;52.236;5.114;2023-02-05T10:39:20;103987.16;;;10.58;100.00
59170;BME280;52474;52.236;5.114;2023-02-05T10:41:52;104001.34;;;10.30;100.00
59170;BME280;52474;52.236;5.114;2023-02-05T10:44:30;103992.78;;;10.49;100.00
59170;BME280;52474;52.236;5.114;2023-02-05T10:47:22;104024.44;;;9.71;100.00
59170;BME280;52474;52.236;5.114;2023-02-05T10:49:55;104030.38;;;9.79;100.00
59170;BME280;52474;52.236;5.114;2023-02-05T10:52:22;104041.19;;;9.10;100.00
59170;BME280;52474;52.236;5.114;2023-02-05T10:54:49;104053.88;;;8.29;100.00
59170;BME280;52474;52.236;5.114;2023-02-05T10:57:17;104056.13;;;8.46;100.00
59170;BME280;52474;52.236;5.114;2023-02-05T11:00:15;104058.84;;;8.43;100.00
59170;BME280;52474;52.236;5.114;2023-02-05T11:02:46;104054.00;;;8.94;100.00
59170;BME280;52474;52.236;5.114;2023-02-05T11:07:46;104029.03;;;9.05;100.00
59170;BME280;52474;52.236;5.114;2023-02-05T11:12:52;104019.19;;;13.57;100.00
59170;BME280;52474;52.236;5.114;2023-02-05T11:15:25;104047.81;;;14.78;100.00
59170;BME280;52474;52.236;5.114;2023-02-05T11:17:58;104040.69;;;12.74;100.00
59170;BME280;52474;52.236;5.114;2023-02-05T11:20:30;104045.16;;;15.93;100.00
59170;BME280;52474;52.236;5.114;2023-02-05T11:23:20;104045.28;;;15.26;100.00
59170;BME280;52474;52.236;5.114;2023-02-05T11:25:53;104040.16;;;16.77;100.00
59170;BME280;52474;52.236;5.114;2023-02-05T11:28:30;104053.28;;;17.53;100.00
59170;BME280;52474;52.236;5.114;2023-02-05T11:33:43;104038.91;;;18.88;100.00
59170;BME280;52474;52.236;5.114;2023-02-05T11:36:15;104034.97;;;19.31;100.00
59170;BME280;52474;52.236;5.114;2023-02-05T11:38:48;104034.16;;;19.91;100.00
59170;BME280;52474;52.236;5.114;2023-02-05T11:41:34;104028.66;;;19.93;97.00
59170;BME280;52474;52.236;5.114;2023-02-05T11:44:30;104032.50;;;19.28;100.00
59170;BME280;52474;52.236;5.114;2023-02-05T11:47:01;104036.88;;;19.79;94.11
59170;BME280;52474;52.236;5.114;2023-02-05T11:49:37;104035.44;;;19.25;98.02
59170;BME280;52474;52.236;5.114;2023-02-05T11:52:11;104021.75;;;17.98;100.00
59170;BME280;52474;52.236;5.114;2023-02-05T11:54:43;104042.16;;;18.01;100.00
59170;BME280;52474;52.236;5.114;2023-02-05T12:04:59;104034.19;;;17.72;100.00
59170;BME280;52474;52.236;5.114;2023-02-05T12:07:28;104025.72;;;13.50;100.00
59170;BME280;52474;52.236;5.114;2023-02-05T12:09:58;104039.81;;;16.83;100.00
59170;BME280;52474;52.236;5.114;2023-02-05T12:15:23;104064.91;;;11.09;100.00
59170;BME280;52474;52.236;5.114;2023-02-05T12:18:14;104044.97;;;13.93;100.00
59170;BME280;52474;52.236;5.114;2023-02-05T12:20:50;104049.66;;;10.90;100.00
59170;BME280;52474;52.236;5.114;2023-02-05T12:29:30;104059.41;;;12.91;100.00
59170;BME280;52474;52.236;5.114;2023-02-05T12:32:49;104037.97;;;15.30;100.00
59170;BME280;52474;52.236;5.114;2023-02-05T12:43:47;104055.44;;;11.96;100.00
59170;BME280;52474;52.236;5.114;2023-02-05T12:57:03;104071.63;;;10.94;100.00
59170;BME280;52474;52.236;5.114;2023-02-05T12:59:41;104071.56;;;11.21;100.00
59170;BME280;52474;52.236;5.114;2023-02-05T13:04:59;104049.19;;;12.61;100.00
59170;BME280;52474;52.236;5.114;2023-02-05T13:10:04;104059.53;;;10.85;100.00
59170;BME280;52474;52.236;5.114;2023-02-05T13:12:42;104078.50;;;12.38;100.00
59170;BME280;52474;52.236;5.114;2023-02-05T13:15:22;104064.81;;;12.69;100.00
59170;BME280;52474;52.236;5.114;2023-02-05T13:18:04;104069.56;;;13.62;100.00
59170;BME280;52474;52.236;5.114;2023-02-05T13:20:43;104077.16;;;12.50;100.00
59170;BME280;52474;52.236;5.114;2023-02-05T13:23:28;104081.22;;;10.98;100.00
59170;BME280;52474;52.236;5.114;2023-02-05T13:26:16;104082.69;;;9.99;100.00
59170;BME280;52474;52.236;5.114;2023-02-05T13:29:08;104040.94;;;9.19;100.00
59170;BME280;52474;52.236;5.114;2023-02-05T13:31:37;104103.78;;;9.10;100.00
59170;BME280;52474;52.236;5.114;2023-02-05T13:34:08;104093.94;;;8.84;100.00
59170;BME280;52474;52.236;5.114;2023-02-05T13:37:12;104098.41;;;9.13;100.00
59170;BME280;52474;52.236;5.114;2023-02-05T13:59:13;104113.22;;;8.87;100.00
59170;BME280;52474;52.236;5.114;2023-02-05T14:01:47;104086.97;;;8.79;100.00
59170;BME280;52474;52.236;5.114;2023-02-05T14:04:26;104103.66;;;8.47;100.00
59170;BME280;52474;52.236;5.114;2023-02-05T14:07:05;104119.59;;;8.43;100.00
59170;BME280;52474;52.236;5.114;2023-02-05T14:09:33;104120.13;;;8.57;100.00
59170;BME280;52474;52.236;5.114;2023-02-05T14:12:04;104122.53;;;8.29;100.00
59170;BME280;52474;52.236;5.114;2023-02-05T14:14:38;104117.00;;;8.01;100.00
59170;BME280;52474;52.236;5.114;2023-02-05T14:19:54;104086.91;;;7.69;100.00
59170;BME280;52474;52.236;5.114;2023-02-05T14:22:40;104108.72;;;7.77;100.00
59170;BME280;52474;52.236;5.114;2023-02-05T14:35:40;104116.72;;;7.72;100.00
59170;BME280;52474;52.236;5.114;2023-02-05T14:38:27;104132.75;;;7.63;100.00
59170;BME280;52474;52.236;5.114;2023-02-05T14:43:31;104119.41;;;7.71;100.00
59170;BME280;52474;52.236;5.114;2023-02-05T14:46:04;104124.88;;;7.60;100.00
59170;BME280;52474;52.236;5.114;2023-02-05T14:48:34;104123.25;;;7.53;100.00
59170;BME280;52474;52.236;5.114;2023-02-05T14:53:58;104144.94;;;7.24;100.00
59170;BME280;52474;52.236;5.114;2023-02-05T14:56:39;104118.84;;;7.08;100.00
59170;BME280;52474;52.236;5.114;2023-02-05T14:59:38;104144.75;;;7.33;100.00
59170;BME280;52474;52.236;5.114;2023-02-05T15:05:35;104135.50;;;7.57;100.00
59170;BME280;52474;52.236;5.114;2023-02-05T15:08:15;104139.94;;;7.55;100.00
59170;BME280;52474;52.236;5.114;2023-02-05T15:13:18;104139.06;;;7.08;100.00
59170;BME280;52474;52.236;5.114;2023-02-05T15:16:07;104149.59;;;7.09;100.00
59170;BME280;52474;52.236;5.114;2023-02-05T15:18:38;104126.25;;;6.88;100.00
59170;BME280;52474;52.236;5.114;2023-02-05T15:21:05;104147.44;;;6.82;100.00
59170;BME280;52474;52.236;5.114;2023-02-05T15:23:42;104147.66;;;6.66;100.00
59170;BME280;52474;52.236;5.114;2023-02-05T15:26:41;104141.66;;;6.58;100.00
59170;BME280;52474;52.236;5.114;2023-02-05T15:29:28;104146.97;;;6.55;100.00